Time;durP1;ratioP1;P1;durP2;ratioP2;P2;SDS_P1;SDS_P2;PMS_P1;PMS_P2;Temp;Humidity;BMP_temperature;BMP_pressure;BME280_temperature;BME280_humidity;BME280_pressure;Samples;Min_cycle;Max_cycle;Signal;HPM_P1;HPM_P2
2022/01/11 00:00:46;;;;;;;;;;;;;;;7.18;63.65;103065.41;5082050;28;19925;-82
2022/01/11 00:03:12;;;;;;;;;;;;;;;6.14;64.37;103067.59;5064180;28;19901;-84
2022/01/11 00:05:49;;;;;;;;;;;;;;;6.11;64.73;103053.25;5064662;28;20286;-83
2022/01/11 00:08:15;;;;;;;;;;;;;;;7.20;61.67;103060.91;5062896;28;20015;-84
2022/01/11 00:10:53;;;;;;;;;;;;;;;6.47;63.41;103062.44;5062580;28;19923;-83
2022/01/11 00:13:19;;;;;;;;;;;;;;;6.35;64.35;103058.78;5062780;28;19916;-82
2022/01/11 00:15:46;;;;;;;;;;;;;;;6.43;64.54;103063.31;5063110;28;19916;-83
2022/01/11 00:18:11;;;;;;;;;;;;;;;6.72;62.91;103063.47;5063981;28;20015;-82
2022/01/11 00:20:38;;;;;;;;;;;;;;;7.01;62.54;103065.38;5064224;28;19964;-83
2022/01/11 00:25:30;;;;;;;;;;;;;;;6.66;63.56;103068.81;5082551;28;20021;-83
2022/01/11 00:27:56;;;;;;;;;;;;;;;5.88;66.96;103069.19;5063863;28;19923;-84
2022/01/11 00:30:22;;;;;;;;;;;;;;;6.44;66.30;103070.50;5082328;28;20011;-84
2022/01/11 00:32:52;;;;;;;;;;;;;;;6.27;65.50;103078.47;5062176;28;19939;-83
2022/01/11 00:35:22;;;;;;;;;;;;;;;7.04;62.99;103093.16;5063124;28;19942;-82
2022/01/11 00:37:48;;;;;;;;;;;;;;;6.98;61.49;103095.84;5063355;28;19992;-82
2022/01/11 00:40:13;;;;;;;;;;;;;;;6.79;63.05;103097.53;5063230;28;19963;-84
2022/01/11 00:42:39;;;;;;;;;;;;;;;6.81;63.02;103095.78;5062897;28;19924;-81
2022/01/11 00:45:04;;;;;;;;;;;;;;;6.47;64.21;103087.53;5063008;28;19923;-82
2022/01/11 00:47:30;;;;;;;;;;;;;;;7.12;62.80;103089.59;5063416;28;20025;-82
2022/01/11 00:49:55;;;;;;;;;;;;;;;7.21;61.62;103086.94;5080068;28;19924;-83
2022/01/11 00:52:21;;;;;;;;;;;;;;;6.65;63.25;103089.41;5080619;28;20393;-82
2022/01/11 00:54:46;;;;;;;;;;;;;;;6.34;65.48;103091.03;5062930;28;19917;-82
2022/01/11 00:57:11;;;;;;;;;;;;;;;6.39;64.65;103092.88;5063326;28;19917;-82
2022/01/11 00:59:37;;;;;;;;;;;;;;;6.25;65.32;103094.59;5066014;28;19912;-82
2022/01/11 01:02:02;;;;;;;;;;;;;;;6.85;64.35;103085.91;5063865;28;20373;-82
2022/01/11 01:04:27;;;;;;;;;;;;;;;6.18;65.04;103099.00;5063893;28;19916;-84
2022/01/11 01:06:53;;;;;;;;;;;;;;;6.34;65.13;103089.25;5080167;28;19931;-82
2022/01/11 01:09:18;;;;;;;;;;;;;;;6.37;64.62;103089.28;5080233;28;19920;-82
2022/01/11 01:11:44;;;;;;;;;;;;;;;6.37;64.91;103086.59;5061757;28;19943;-82
2022/01/11 01:14:10;;;;;;;;;;;;;;;6.85;63.94;103081.44;5080440;28;19930;-82
2022/01/11 01:16:35;;;;;;;;;;;;;;;7.84;60.49;103087.03;5062228;28;20483;-84
2022/01/11 01:19:00;;;;;;;;;;;;;;;7.01;63.29;103093.16;5080813;28;20267;-84
2022/01/11 01:21:26;;;;;;;;;;;;;;;6.92;62.15;103091.31;5066204;28;19923;-84
2022/01/11 01:23:51;;;;;;;;;;;;;;;6.95;62.86;103092.25;5083756;28;20369;-82
2022/01/11 01:26:17;;;;;;;;;;;;;;;7.44;61.09;103090.59;5066992;28;20361;-82
2022/01/11 01:28:43;;;;;;;;;;;;;;;6.92;62.15;103090.44;5066122;28;19988;-84
2022/01/11 01:31:08;;;;;;;;;;;;;;;6.94;63.38;103091.34;5067086;28;19952;-83
2022/01/11 01:33:34;;;;;;;;;;;;;;;6.87;63.12;103094.88;5065817;28;19940;-83
2022/01/11 01:36:05;;;;;;;;;;;;;;;6.61;64.33;103094.78;5066109;28;19963;-83
2022/01/11 01:38:31;;;;;;;;;;;;;;;6.47;65.46;103102.78;5065636;28;19926;-82
2022/01/11 01:41:02;;;;;;;;;;;;;;;6.26;65.13;103109.81;5064492;28;19917;-83
2022/01/11 01:43:28;;;;;;;;;;;;;;;7.38;62.32;103098.66;5083542;28;19931;-84
2022/01/11 01:45:55;;;;;;;;;;;;;;;6.56;63.74;103113.56;5066048;28;19964;-82
2022/01/11 01:48:21;;;;;;;;;;;;;;;6.38;64.75;103109.88;5065851;28;19977;-84
2022/01/11 01:50:48;;;;;;;;;;;;;;;7.27;61.59;103111.19;5083310;28;19916;-83
2022/01/11 01:53:14;;;;;;;;;;;;;;;6.89;62.59;103110.16;5065693;28;19917;-82
2022/01/11 01:55:40;;;;;;;;;;;;;;;6.57;63.89;103112.69;5065619;28;19920;-83
2022/01/11 01:58:05;;;;;;;;;;;;;;;6.63;64.18;103111.81;5064195;28;19931;-82
2022/01/11 02:00:31;;;;;;;;;;;;;;;6.64;63.43;103110.94;5083839;28;19920;-84
2022/01/11 02:03:08;;;;;;;;;;;;;;;6.44;63.14;103116.19;5065706;28;20282;-84
2022/01/11 02:05:33;;;;;;;;;;;;;;;6.58;64.09;103119.84;5084057;28;19916;-84
2022/01/11 02:07:58;;;;;;;;;;;;;;;6.66;63.36;103123.50;5065825;28;19928;-83
2022/01/11 02:10:24;;;;;;;;;;;;;;;6.48;63.88;103118.91;5065780;28;19925;-82
2022/01/11 02:12:50;;;;;;;;;;;;;;;6.39;65.13;103111.69;5065445;28;19920;-82
2022/01/11 02:15:15;;;;;;;;;;;;;;;5.63;66.69;103126.28;5064494;28;19916;-84
2022/01/11 02:17:40;;;;;;;;;;;;;;;6.16;64.36;103122.28;5064675;28;19981;-82
2022/01/11 02:20:10;;;;;;;;;;;;;;;6.36;65.50;103110.78;5065407;28;19939;-82
2022/01/11 02:22:36;;;;;;;;;;;;;;;6.59;63.92;103116.28;5064990;28;19917;-83
2022/01/11 02:25:01;;;;;;;;;;;;;;;6.71;64.52;103120.84;5065085;28;19924;-82
2022/01/11 02:27:26;;;;;;;;;;;;;;;6.38;65.34;103127.81;5082515;28;19917;-82
2022/01/11 02:29:52;;;;;;;;;;;;;;;6.81;63.52;103132.53;5064948;28;19960;-83
2022/01/11 02:32:18;;;;;;;;;;;;;;;6.37;64.68;103123.31;5063621;28;19974;-82
2022/01/11 02:34:43;;;;;;;;;;;;;;;6.03;65.82;103123.97;5082708;28;19983;-83
2022/01/11 02:37:08;;;;;;;;;;;;;;;5.88;67.04;103122.91;5064940;28;19912;-83
2022/01/11 02:39:34;;;;;;;;;;;;;;;6.11;67.32;103129.41;5065313;28;19920;-83
2022/01/11 02:42:01;;;;;;;;;;;;;;;6.00;67.16;103123.94;5082441;28;20069;-82
2022/01/11 02:44:27;;;;;;;;;;;;;;;5.97;67.36;103117.66;5064907;28;19917;-84
2022/01/11 02:46:52;;;;;;;;;;;;;;;6.44;67.18;103118.88;5083076;28;19923;-82
2022/01/11 02:49:17;;;;;;;;;;;;;;;6.62;63.95;103120.78;5063822;28;19924;-83
2022/01/11 02:51:42;;;;;;;;;;;;;;;6.22;65.40;103126.81;5064462;28;19952;-83
2022/01/11 02:54:08;;;;;;;;;;;;;;;6.63;64.31;103128.88;5064710;28;19920;-84
2022/01/11 02:56:33;;;;;;;;;;;;;;;6.33;65.66;103132.28;5082690;28;19948;-85
2022/01/11 02:58:59;;;;;;;;;;;;;;;5.97;65.97;103131.97;5065357;28;19955;-83
2022/01/11 03:01:24;;;;;;;;;;;;;;;6.77;64.71;103126.25;5082678;28;19935;-84
2022/01/11 03:03:51;;;;;;;;;;;;;;;7.01;62.37;103127.25;5064732;28;19921;-83
2022/01/11 03:06:16;;;;;;;;;;;;;;;6.31;64.27;103131.34;5065142;28;19967;-82
2022/01/11 03:08:44;;;;;;;;;;;;;;;6.15;64.61;103135.72;5065164;28;20567;-83
2022/01/11 03:11:10;;;;;;;;;;;;;;;6.37;65.09;103143.06;5084030;28;20014;-83
2022/01/11 03:13:38;;;;;;;;;;;;;;;7.07;61.71;103146.13;5064708;28;19964;-82
2022/01/11 03:16:03;;;;;;;;;;;;;;;6.97;63.07;103145.16;5064853;28;20378;-82
2022/01/11 03:18:29;;;;;;;;;;;;;;;7.63;59.78;103158.84;5065489;28;19924;-83
2022/01/11 03:20:54;;;;;;;;;;;;;;;6.64;63.53;103160.22;5063986;28;19912;-83
2022/01/11 03:23:20;;;;;;;;;;;;;;;6.96;62.19;103162.22;5062553;28;19973;-83
2022/01/11 03:25:46;;;;;;;;;;;;;;;7.57;59.32;103157.94;5063360;28;19916;-83
2022/01/11 03:28:11;;;;;;;;;;;;;;;6.84;61.73;103151.38;5062654;28;19920;-81
2022/01/11 03:30:37;;;;;;;;;;;;;;;6.49;63.93;103160.13;5062589;28;20384;-83
2022/01/11 03:33:03;;;;;;;;;;;;;;;5.87;66.96;103164.97;5078451;28;19916;-82
2022/01/11 03:35:29;;;;;;;;;;;;;;;6.72;64.46;103154.94;5060978;28;19952;-82
2022/01/11 03:37:54;;;;;;;;;;;;;;;6.56;64.86;103153.91;5060707;28;20366;-81
2022/01/11 03:40:21;;;;;;;;;;;;;;;6.85;63.34;103145.13;5059932;28;19920;-83
2022/01/11 03:42:47;;;;;;;;;;;;;;;6.73;64.04;103135.19;5059439;28;19927;-82
2022/01/11 03:45:13;;;;;;;;;;;;;;;6.57;63.76;103136.91;5059790;28;19956;-82
2022/01/11 03:47:38;;;;;;;;;;;;;;;6.74;64.07;103137.00;5060885;28;19917;-83
2022/01/11 03:50:04;;;;;;;;;;;;;;;6.32;64.51;103150.16;5078057;28;19920;-82
2022/01/11 03:52:30;;;;;;;;;;;;;;;6.39;64.75;103141.25;5061212;28;19986;-83
2022/01/11 03:57:21;;;;;;;;;;;;;;;6.38;64.14;103131.38;5079436;28;20328;-82
2022/01/11 03:59:46;;;;;;;;;;;;;;;6.88;63.10;103124.53;5060522;28;20016;-82
2022/01/11 04:02:11;;;;;;;;;;;;;;;7.19;62.01;103119.25;5060810;28;19996;-83
2022/01/11 04:04:37;;;;;;;;;;;;;;;6.43;63.79;103125.16;5060432;28;19912;-82
2022/01/11 04:07:02;;;;;;;;;;;;;;;6.37;63.72;103126.00;5058894;28;19984;-82
2022/01/11 04:09:28;;;;;;;;;;;;;;;6.49;64.73;103127.88;5059832;28;20015;-83
2022/01/11 04:11:53;;;;;;;;;;;;;;;6.44;64.87;103137.72;5059019;28;20366;-82
2022/01/11 04:14:18;;;;;;;;;;;;;;;5.93;66.45;103139.97;5059800;28;19947;-83
2022/01/11 04:16:43;;;;;;;;;;;;;;;6.42;66.55;103137.69;5059657;28;19991;-83
2022/01/11 04:19:09;;;;;;;;;;;;;;;5.87;67.54;103146.19;5060924;28;19916;-83
2022/01/11 04:21:34;;;;;;;;;;;;;;;5.81;67.32;103151.50;5059942;28;19927;-82
2022/01/11 04:24:00;;;;;;;;;;;;;;;5.64;68.25;103144.16;5059290;28;20388;-82
2022/01/11 04:26:25;;;;;;;;;;;;;;;6.52;65.86;103157.47;5058220;28;19923;-82
2022/01/11 04:28:50;;;;;;;;;;;;;;;6.31;64.93;103152.84;5059356;28;19959;-82
2022/01/11 04:31:15;;;;;;;;;;;;;;;6.51;64.77;103153.88;5059593;28;19955;-83
2022/01/11 04:33:43;;;;;;;;;;;;;;;6.47;64.04;103144.00;5059536;28;20406;-82
2022/01/11 04:36:09;;;;;;;;;;;;;;;6.36;63.90;103141.25;5077381;28;19913;-83
2022/01/11 04:38:34;;;;;;;;;;;;;;;6.31;65.86;103144.78;5059653;28;19991;-82
2022/01/11 04:40:59;;;;;;;;;;;;;;;6.03;66.32;103158.91;5058780;28;19917;-84
2022/01/11 04:43:24;;;;;;;;;;;;;;;6.10;66.59;103153.56;5075932;28;20406;-83
2022/01/11 04:45:50;;;;;;;;;;;;;;;6.39;66.18;103143.94;5077603;28;19970;-82
2022/01/11 04:48:15;;;;;;;;;;;;;;;6.09;66.78;103146.41;5059500;28;20050;-83
2022/01/11 04:50:41;;;;;;;;;;;;;;;6.36;66.15;103135.88;5058944;28;19916;-82
2022/01/11 04:53:06;;;;;;;;;;;;;;;6.05;66.68;103144.59;5076594;28;19938;-83
2022/01/11 04:55:32;;;;;;;;;;;;;;;6.26;66.36;103138.47;5060056;28;19916;-82
2022/01/11 04:57:57;;;;;;;;;;;;;;;5.99;67.86;103140.06;5061361;28;20010;-81
2022/01/11 05:00:23;;;;;;;;;;;;;;;6.27;66.58;103148.34;5061549;28;19912;-83
2022/01/11 05:02:48;;;;;;;;;;;;;;;7.26;61.20;103141.69;5079881;28;20277;-82
2022/01/11 05:05:15;;;;;;;;;;;;;;;6.59;64.88;103147.66;5061600;28;20425;-83
2022/01/11 05:07:41;;;;;;;;;;;;;;;6.47;65.09;103156.56;5061548;28;19920;-82
2022/01/11 05:10:06;;;;;;;;;;;;;;;6.43;65.19;103149.34;5061582;28;19958;-82
2022/01/11 05:12:34;;;;;;;;;;;;;;;7.00;63.53;103150.56;5061070;28;19966;-83
2022/01/11 05:14:59;;;;;;;;;;;;;;;6.80;64.18;103154.97;5079972;28;19916;-83
2022/01/11 05:17:24;;;;;;;;;;;;;;;6.51;64.66;103151.19;5078688;28;19966;-82
2022/01/11 05:19:49;;;;;;;;;;;;;;;6.98;63.93;103155.03;5058394;28;20370;-83
2022/01/11 05:22:14;;;;;;;;;;;;;;;7.16;63.20;103147.97;5079197;28;19923;-82
2022/01/11 05:24:40;;;;;;;;;;;;;;;6.93;62.91;103151.44;5081345;28;19916;-86
2022/01/11 05:27:05;;;;;;;;;;;;;;;6.16;64.74;103156.31;5081432;28;19962;-82
2022/01/11 05:29:31;;;;;;;;;;;;;;;6.83;64.16;103157.66;5079942;28;19920;-81
2022/01/11 05:31:58;;;;;;;;;;;;;;;6.48;64.78;103155.69;5061344;28;19920;-82
2022/01/11 05:34:23;;;;;;;;;;;;;;;6.17;65.98;103152.75;5060995;28;19921;-82
2022/01/11 05:36:48;;;;;;;;;;;;;;;6.18;66.13;103163.50;5062745;28;19917;-83
2022/01/11 05:39:14;;;;;;;;;;;;;;;5.82;67.22;103167.63;5062430;28;20405;-82
2022/01/11 05:41:39;;;;;;;;;;;;;;;6.26;66.68;103166.25;5062747;28;19928;-83
2022/01/11 05:44:04;;;;;;;;;;;;;;;6.33;66.12;103157.34;5079518;28;19916;-84
2022/01/11 05:46:31;;;;;;;;;;;;;;;5.86;67.85;103165.91;5061513;28;19927;-85
2022/01/11 05:48:56;;;;;;;;;;;;;;;5.95;67.02;103168.66;5060814;28;19962;-84
2022/01/11 05:51:21;;;;;;;;;;;;;;;5.85;67.43;103172.13;5078974;28;19916;-84
2022/01/11 05:53:47;;;;;;;;;;;;;;;6.01;67.81;103166.06;5063575;28;19917;-84
2022/01/11 05:56:12;;;;;;;;;;;;;;;6.46;65.75;103166.41;5060986;28;19916;-83
2022/01/11 05:58:37;;;;;;;;;;;;;;;6.52;65.67;103168.22;5078212;28;19920;-84
2022/01/11 06:01:03;;;;;;;;;;;;;;;5.97;67.00;103172.28;5060613;28;19908;-84
2022/01/11 06:03:28;;;;;;;;;;;;;;;6.09;67.70;103174.19;5059873;28;19917;-84
2022/01/11 06:05:53;;;;;;;;;;;;;;;5.92;66.94;103165.94;5057920;28;19923;-83
2022/01/11 06:08:19;;;;;;;;;;;;;;;5.61;68.76;103160.25;5059352;28;19916;-84
2022/01/11 06:10:44;;;;;;;;;;;;;;;5.62;68.90;103155.81;5059123;28;20011;-84
2022/01/11 06:13:10;;;;;;;;;;;;;;;5.62;68.48;103155.81;5059593;28;20381;-84
2022/01/11 06:15:35;;;;;;;;;;;;;;;5.77;68.61;103161.31;5060096;28;19942;-83
2022/01/11 06:18:00;;;;;;;;;;;;;;;5.65;68.34;103164.78;5060474;28;19924;-83
2022/01/11 06:20:26;;;;;;;;;;;;;;;6.08;67.19;103158.06;5060776;28;19924;-85
2022/01/11 06:22:53;;;;;;;;;;;;;;;5.98;66.19;103175.88;5063384;28;19912;-84
2022/01/11 06:25:18;;;;;;;;;;;;;;;7.21;63.90;103167.69;5060603;28;19931;-84
2022/01/11 06:27:43;;;;;;;;;;;;;;;6.30;64.55;103178.84;5061086;28;19920;-84
2022/01/11 06:30:09;;;;;;;;;;;;;;;6.63;63.65;103179.97;5079388;28;19916;-85
2022/01/11 06:32:35;;;;;;;;;;;;;;;6.26;64.66;103185.06;5061613;28;19917;-84
2022/01/11 06:35:00;;;;;;;;;;;;;;;6.71;63.33;103186.28;5061317;28;19961;-86
2022/01/11 06:37:25;;;;;;;;;;;;;;;6.54;64.77;103193.34;5079081;28;19916;-83
2022/01/11 06:39:51;;;;;;;;;;;;;;;6.07;65.90;103201.91;5061189;28;19988;-86
2022/01/11 06:42:16;;;;;;;;;;;;;;;6.15;65.58;103206.47;5058095;28;19921;-84
2022/01/11 06:44:42;;;;;;;;;;;;;;;6.70;63.57;103195.25;5057914;28;19917;-86
2022/01/11 06:47:08;;;;;;;;;;;;;;;6.45;63.90;103204.06;5060421;28;19917;-83
2022/01/11 06:49:33;;;;;;;;;;;;;;;6.27;65.51;103203.00;5057977;28;19924;-84
2022/01/11 06:51:59;;;;;;;;;;;;;;;6.39;63.80;103199.53;5056837;28;19923;-84
2022/01/11 06:54:24;;;;;;;;;;;;;;;6.59;63.53;103198.78;5056599;28;19920;-85
2022/01/11 06:56:49;;;;;;;;;;;;;;;7.06;61.72;103199.03;5058428;28;19921;-85
2022/01/11 06:59:14;;;;;;;;;;;;;;;6.75;62.29;103208.75;5057924;28;19939;-88
2022/01/11 07:01:40;;;;;;;;;;;;;;;6.99;61.75;103205.28;5060109;28;19960;-83
2022/01/11 07:04:05;;;;;;;;;;;;;;;6.69;62.02;103217.66;5058423;28;19908;-85
2022/01/11 07:06:30;;;;;;;;;;;;;;;7.39;59.92;103208.16;5058720;28;19947;-83
2022/01/11 07:08:55;;;;;;;;;;;;;;;7.32;59.99;103216.19;5060643;28;19976;-85
2022/01/11 07:11:23;;;;;;;;;;;;;;;6.82;61.06;103223.13;5057299;28;19928;-85
2022/01/11 07:13:48;;;;;;;;;;;;;;;6.90;61.90;103216.00;5056127;28;19917;-84
2022/01/11 07:16:13;;;;;;;;;;;;;;;6.98;60.67;103216.94;5055941;28;19923;-84
2022/01/11 07:18:39;;;;;;;;;;;;;;;7.09;59.65;103217.88;5057543;28;20364;-83
2022/01/11 07:21:04;;;;;;;;;;;;;;;6.57;62.64;103231.91;5057424;28;19923;-84
2022/01/11 07:23:29;;;;;;;;;;;;;;;7.07;60.67;103222.38;5057256;28;19921;-84
2022/01/11 07:25:54;;;;;;;;;;;;;;;6.93;61.05;103234.88;5056845;28;19917;-84
2022/01/11 07:28:19;;;;;;;;;;;;;;;6.71;61.00;103245.47;5056472;28;19928;-84
2022/01/11 07:30:45;;;;;;;;;;;;;;;7.47;59.41;103234.22;5054153;28;19928;-84
2022/01/11 07:33:10;;;;;;;;;;;;;;;7.45;59.41;103240.50;5054291;28;19928;-84
2022/01/11 07:35:35;;;;;;;;;;;;;;;7.44;58.86;103238.72;5055846;28;19939;-84
2022/01/11 07:38:01;;;;;;;;;;;;;;;6.87;60.12;103243.78;5055522;28;20226;-84
2022/01/11 07:40:26;;;;;;;;;;;;;;;6.88;61.25;103242.00;5056851;28;20294;-84
2022/01/11 07:42:51;;;;;;;;;;;;;;;6.18;62.84;103249.50;5055338;28;19921;-84
2022/01/11 07:45:17;;;;;;;;;;;;;;;6.67;62.76;103243.66;5055922;28;20441;-84
2022/01/11 07:47:43;;;;;;;;;;;;;;;7.27;59.65;103244.00;5055800;28;19917;-84
2022/01/11 07:50:08;;;;;;;;;;;;;;;6.30;62.88;103250.53;5054688;28;19916;-84
2022/01/11 07:52:34;;;;;;;;;;;;;;;6.96;60.27;103256.41;5056548;28;19917;-87
2022/01/11 07:55:00;;;;;;;;;;;;;;;7.18;60.45;103253.84;5057202;28;19928;-86
2022/01/11 07:57:26;;;;;;;;;;;;;;;6.68;60.11;103266.06;5054074;28;20263;-82
2022/01/11 07:59:51;;;;;;;;;;;;;;;6.90;59.39;103262.66;5054277;28;20018;-83
2022/01/11 08:02:17;;;;;;;;;;;;;;;6.52;60.92;103265.97;5055614;28;19970;-84
2022/01/11 08:04:42;;;;;;;;;;;;;;;7.34;59.62;103260.22;5049369;28;19978;-83
2022/01/11 08:07:09;;;;;;;;;;;;;;;6.51;60.66;103261.47;5054127;28;19916;-83
2022/01/11 08:09:36;;;;;;;;;;;;;;;6.03;62.84;103265.50;5052747;28;19920;-83
2022/01/11 08:12:01;;;;;;;;;;;;;;;6.15;63.57;103264.72;5054552;28;19916;-83
2022/01/11 08:14:27;;;;;;;;;;;;;;;6.58;62.45;103270.47;5053094;28;19917;-83
2022/01/11 08:16:52;;;;;;;;;;;;;;;6.36;62.07;103270.28;5054043;28;20012;-83
2022/01/11 08:19:24;;;;;;;;;;;;;;;6.40;61.06;103273.91;5054413;28;19928;-83
2022/01/11 08:21:49;;;;;;;;;;;;;;;6.52;61.78;103273.09;5055341;28;19946;-83
2022/01/11 08:24:15;;;;;;;;;;;;;;;7.02;60.12;103266.28;5054753;28;19979;-83
2022/01/11 08:26:40;;;;;;;;;;;;;;;7.07;59.37;103272.63;5054335;28;19905;-84
2022/01/11 08:29:05;;;;;;;;;;;;;;;6.73;60.19;103284.06;5055356;28;19928;-83
2022/01/11 08:31:30;;;;;;;;;;;;;;;7.01;58.80;103278.88;5059966;28;19932;-84
2022/01/11 08:33:56;;;;;;;;;;;;;;;7.27;57.92;103283.50;5060787;28;20007;-84
2022/01/11 08:36:21;;;;;;;;;;;;;;;7.42;58.38;103278.19;5059353;28;20355;-85
2022/01/11 08:38:46;;;;;;;;;;;;;;;7.33;58.39;103275.44;5058119;28;20355;-84
2022/01/11 08:41:11;;;;;;;;;;;;;;;6.92;60.36;103277.00;5058794;28;20309;-84
2022/01/11 08:43:37;;;;;;;;;;;;;;;7.03;58.90;103278.88;5057599;28;19920;-84
2022/01/11 08:46:02;;;;;;;;;;;;;;;7.29;58.33;103281.69;5058291;28;19921;-84
2022/01/11 08:48:28;;;;;;;;;;;;;;;7.02;58.73;103283.38;5057185;28;20378;-84
2022/01/11 08:50:53;;;;;;;;;;;;;;;7.21;59.15;103273.59;5058269;28;19952;-85
2022/01/11 08:53:20;;;;;;;;;;;;;;;7.09;59.30;103278.91;5059121;28;19919;-84
2022/01/11 08:55:45;;;;;;;;;;;;;;;7.66;56.69;103281.88;5057687;28;20393;-83
2022/01/11 08:58:10;;;;;;;;;;;;;;;6.87;58.26;103285.91;5057620;28;19917;-80
2022/01/11 09:00:35;;;;;;;;;;;;;;;6.74;60.76;103283.16;5057677;28;20375;-82
2022/01/11 09:03:00;;;;;;;;;;;;;;;7.00;58.88;103274.34;5058918;28;19923;-82
2022/01/11 09:05:26;;;;;;;;;;;;;;;6.73;59.98;103281.38;5058478;28;19920;-82
2022/01/11 09:07:51;;;;;;;;;;;;;;;6.30;61.25;103280.09;5060926;28;19927;-83
2022/01/11 09:10:16;;;;;;;;;;;;;;;7.05;59.35;103282.47;5060944;28;19946;-82
2022/01/11 09:12:42;;;;;;;;;;;;;;;6.94;59.66;103286.88;5060058;28;19917;-82
2022/01/11 09:15:08;;;;;;;;;;;;;;;6.45;59.91;103292.78;5058581;28;19970;-81
2022/01/11 09:17:34;;;;;;;;;;;;;;;6.70;59.71;103286.72;5059780;28;19971;-83
2022/01/11 09:19:59;;;;;;;;;;;;;;;6.88;59.52;103287.75;5060009;28;19921;-81
2022/01/11 09:22:25;;;;;;;;;;;;;;;6.69;60.18;103289.41;5059059;28;19928;-82
2022/01/11 09:24:50;;;;;;;;;;;;;;;6.70;60.57;103291.19;5058441;28;19921;-82
2022/01/11 09:27:16;;;;;;;;;;;;;;;6.81;59.21;103294.88;5060980;28;19932;-82
2022/01/11 09:29:43;;;;;;;;;;;;;;;7.07;58.75;103297.75;5060622;28;19905;-83
2022/01/11 09:32:09;;;;;;;;;;;;;;;7.30;57.74;103299.66;5059872;28;20133;-82
2022/01/11 09:34:37;;;;;;;;;;;;;;;7.28;58.94;103301.47;5059572;28;19939;-83
2022/01/11 09:37:03;;;;;;;;;;;;;;;7.09;58.16;103298.63;5059469;28;19917;-83
2022/01/11 09:39:28;;;;;;;;;;;;;;;6.80;59.19;103301.13;5060278;28;19916;-82
2022/01/11 09:41:53;;;;;;;;;;;;;;;7.15;58.16;103302.28;5058049;28;19925;-84
2022/01/11 09:44:20;;;;;;;;;;;;;;;7.23;58.17;103304.13;5058573;28;19917;-82
2022/01/11 09:46:45;;;;;;;;;;;;;;;6.92;58.27;103300.34;5058796;28;19931;-83
2022/01/11 09:49:11;;;;;;;;;;;;;;;6.95;58.81;103308.44;5058356;28;19916;-83
2022/01/11 09:51:36;;;;;;;;;;;;;;;7.26;59.14;103297.84;5058508;28;19917;-84
2022/01/11 09:54:02;;;;;;;;;;;;;;;7.38;58.36;103306.00;5056675;28;19917;-84
2022/01/11 09:56:27;;;;;;;;;;;;;;;6.81;58.60;103307.41;5059874;28;19925;-84
2022/01/11 09:58:52;;;;;;;;;;;;;;;6.69;60.25;103301.06;5059866;28;19917;-84
2022/01/11 10:01:18;;;;;;;;;;;;;;;6.54;60.99;103298.25;5060766;28;20026;-85
2022/01/11 10:04:04;;;;;;;;;;;;;;;6.43;60.67;103295.47;5058624;28;19948;-85
2022/01/11 10:06:30;;;;;;;;;;;;;;;6.68;61.53;103303.72;5059453;28;19979;-85
2022/01/11 10:09:10;;;;;;;;;;;;;;;6.82;60.56;103293.06;5058275;28;19916;-84
2022/01/11 10:11:39;;;;;;;;;;;;;;;6.69;60.13;103300.16;5057563;28;19916;-84
2022/01/11 10:14:23;;;;;;;;;;;;;;;7.03;58.83;103293.22;5057087;28;19921;-85
2022/01/11 10:16:50;;;;;;;;;;;;;;;7.56;58.00;103296.22;5057835;28;19917;-84
2022/01/11 10:19:21;;;;;;;;;;;;;;;6.91;59.14;103299.44;5059977;28;20375;-85
2022/01/11 10:21:49;;;;;;;;;;;;;;;7.21;58.89;103307.69;5057540;28;20005;-83
2022/01/11 10:24:21;;;;;;;;;;;;;;;7.56;58.89;103306.97;5057758;28;20345;-84
2022/01/11 10:26:46;;;;;;;;;;;;;;;8.08;56.48;103317.06;5057775;28;19978;-85
2022/01/11 10:29:26;;;;;;;;;;;;;;;8.23;56.29;103310.78;5059390;28;19917;-84
2022/01/11 10:31:53;;;;;;;;;;;;;;;8.23;55.27;103310.78;5059421;28;19925;-84
2022/01/11 10:34:34;;;;;;;;;;;;;;;8.38;55.92;103318.94;5058252;28;19917;-84
2022/01/11 10:37:01;;;;;;;;;;;;;;;8.38;54.84;103315.31;5059818;28;19979;-84
2022/01/11 10:39:32;;;;;;;;;;;;;;;9.69;51.63;103318.78;5058744;28;19971;-83
2022/01/11 10:41:58;;;;;;;;;;;;;;;9.29;51.85;103332.41;5057124;28;19927;-84
2022/01/11 10:44:41;;;;;;;;;;;;;;;9.93;50.68;103331.28;5058196;28;19916;-84
2022/01/11 10:47:06;;;;;;;;;;;;;;;9.80;50.61;103331.31;5056590;28;20409;-85
2022/01/11 10:49:32;;;;;;;;;;;;;;;10.60;49.06;103328.19;5057874;28;19917;-85
2022/01/11 10:52:16;;;;;;;;;;;;;;;10.04;49.33;103335.72;5055488;28;19923;-86
2022/01/11 10:54:44;;;;;;;;;;;;;;;10.07;49.89;103325.81;5057548;28;19924;-83
2022/01/11 10:57:15;;;;;;;;;;;;;;;9.69;50.32;103320.56;5057127;28;19921;-85
2022/01/11 10:59:40;;;;;;;;;;;;;;;9.74;50.15;103321.47;5057505;28;19928;-87
2022/01/11 11:02:12;;;;;;;;;;;;;;;9.24;50.44;103320.72;5058725;28;19924;-86
2022/01/11 11:04:38;;;;;;;;;;;;;;;9.87;50.11;103317.81;5058470;28;20293;-87
2022/01/11 11:07:13;;;;;;;;;;;;;;;9.92;48.92;103320.47;5057892;28;19948;-86
2022/01/11 11:09:50;;;;;;;;;;;;;;;10.08;48.47;103323.97;5059624;28;19939;-87
2022/01/11 11:12:22;;;;;;;;;;;;;;;10.02;48.76;103318.59;5058410;28;19944;-86
2022/01/11 11:14:48;;;;;;;;;;;;;;;10.71;47.91;103315.47;5060247;28;19916;-86
2022/01/11 11:17:30;;;;;;;;;;;;;;;10.35;48.68;103314.81;5058837;28;19917;-88
2022/01/11 11:20:04;;;;;;;;;;;;;;;11.17;46.24;103311.41;5059662;28;19919;-87
2022/01/11 11:22:30;;;;;;;;;;;;;;;11.19;47.08;103331.28;5059188;28;19980;-88
2022/01/11 11:24:56;;;;;;;;;;;;;;;10.53;48.40;103327.31;5059688;28;19952;-88
2022/01/11 11:27:23;;;;;;;;;;;;;;;11.27;46.27;103329.38;5057615;28;19920;-87
2022/01/11 11:29:49;;;;;;;;;;;;;;;11.02;46.89;103320.59;5058042;28;19917;-88
2022/01/11 11:32:18;;;;;;;;;;;;;;;10.90;47.74;103329.75;5057891;28;19931;-87
2022/01/11 11:34:45;;;;;;;;;;;;;;;10.11;49.14;103334.78;5059348;28;20370;-88
2022/01/11 11:37:11;;;;;;;;;;;;;;;10.35;48.80;103343.69;5058997;28;20341;-83
2022/01/11 11:39:38;;;;;;;;;;;;;;;9.49;49.99;103351.25;5060668;28;19920;-87
2022/01/11 11:42:04;;;;;;;;;;;;;;;9.96;49.12;103346.56;5066580;28;20023;-87
2022/01/11 11:44:36;;;;;;;;;;;;;;;10.51;49.92;103339.06;5059966;28;20011;-89
2022/01/11 11:47:06;;;;;;;;;;;;;;;9.70;50.26;103336.78;5059116;28;19912;-85
2022/01/11 11:49:46;;;;;;;;;;;;;;;10.45;48.64;103337.31;5059842;28;19917;-85
2022/01/11 11:52:20;;;;;;;;;;;;;;;10.69;47.36;103341.66;5058745;28;19917;-86
2022/01/11 11:54:49;;;;;;;;;;;;;;;10.84;46.62;103351.47;5059839;28;19916;-86
2022/01/11 11:57:15;;;;;;;;;;;;;;;11.10;46.94;103332.25;5059952;28;19917;-87
2022/01/11 11:59:40;;;;;;;;;;;;;;;11.59;46.15;103327.22;5060188;28;19932;-86
2022/01/11 12:02:06;;;;;;;;;;;;;;;10.38;48.33;103325.63;5077795;28;19928;-85
2022/01/11 12:04:31;;;;;;;;;;;;;;;10.67;47.61;103321.78;5076497;28;19920;-85
2022/01/11 12:06:57;;;;;;;;;;;;;;;10.49;48.55;103321.94;5059043;28;19927;-90
2022/01/11 12:09:28;;;;;;;;;;;;;;;10.29;48.67;103320.25;5076079;28;19923;-87
2022/01/11 12:11:57;;;;;;;;;;;;;;;10.05;49.14;103321.28;5058369;28;19916;-84
2022/01/11 12:14:33;;;;;;;;;;;;;;;10.00;50.11;103321.31;5075747;28;20443;-84
2022/01/11 12:17:22;;;;;;;;;;;;;;;10.35;49.07;103313.94;5076413;28;20384;-88
2022/01/11 12:19:48;;;;;;;;;;;;;;;11.43;45.93;103310.22;5054856;28;19920;-87
2022/01/11 12:22:15;;;;;;;;;;;;;;;10.42;47.28;103308.47;5059668;28;19928;-87
2022/01/11 12:24:41;;;;;;;;;;;;;;;11.23;46.30;103303.25;5055367;28;19924;-86
2022/01/11 12:27:10;;;;;;;;;;;;;;;11.73;45.27;103305.34;5058661;28;20377;-86
2022/01/11 12:29:37;;;;;;;;;;;;;;;11.19;45.90;103301.47;5077761;28;19917;-87
2022/01/11 12:32:08;;;;;;;;;;;;;;;11.02;46.33;103311.56;5079829;28;20281;-85
2022/01/11 12:34:45;;;;;;;;;;;;;;;10.88;47.10;103306.28;5077315;28;19917;-85
2022/01/11 12:37:30;;;;;;;;;;;;;;;10.74;47.05;103310.00;5079245;28;19966;-85
2022/01/11 12:40:15;;;;;;;;;;;;;;;10.63;47.77;103304.69;5062231;28;19904;-87
2022/01/11 12:42:51;;;;;;;;;;;;;;;10.87;46.92;103299.06;5079302;28;19987;-85
2022/01/11 12:47:45;;;;;;;;;;;;;;;11.25;46.54;103303.22;5078421;28;19916;-86
2022/01/11 12:50:12;;;;;;;;;;;;;;;10.70;47.32;103300.13;5059054;28;19921;-85